sensor_id;sensor_type;location;lat;lon;timestamp;P1;durP1;ratioP1;P2;durP2;ratioP2
76995;SDS011;65929;49.062;10.338;2023-07-30T00:00:52;5.65;;;2.85;;
76995;SDS011;65929;49.062;10.338;2023-07-30T00:01:53;4.10;;;2.75;;
76995;SDS011;65929;49.062;10.338;2023-07-30T00:02:54;3.88;;;2.80;;
76995;SDS011;65929;49.062;10.338;2023-07-30T00:03:55;4.97;;;3.22;;
76995;SDS011;65929;49.062;10.338;2023-07-30T00:04:55;8.15;;;3.00;;
76995;SDS011;65929;49.062;10.338;2023-07-30T00:05:56;5.13;;;3.05;;
76995;SDS011;65929;49.062;10.338;2023-07-30T00:06:57;4.20;;;2.80;;
76995;SDS011;65929;49.062;10.338;2023-07-30T00:07:58;4.80;;;2.53;;
76995;SDS011;65929;49.062;10.338;2023-07-30T00:08:59;3.75;;;2.40;;
76995;SDS011;65929;49.062;10.338;2023-07-30T00:10:00;3.95;;;2.78;;
76995;SDS011;65929;49.062;10.338;2023-07-30T00:11:01;4.43;;;2.83;;
76995;SDS011;65929;49.062;10.338;2023-07-30T00:12:01;4.18;;;3.08;;
76995;SDS011;65929;49.062;10.338;2023-07-30T00:13:02;4.03;;;3.10;;
76995;SDS011;65929;49.062;10.338;2023-07-30T00:14:03;5.25;;;2.90;;
76995;SDS011;65929;49.062;10.338;2023-07-30T00:15:05;3.95;;;2.85;;
76995;SDS011;65929;49.062;10.338;2023-07-30T00:16:08;5.40;;;2.92;;
76995;SDS011;65929;49.062;10.338;2023-07-30T00:17:09;5.90;;;2.80;;
76995;SDS011;65929;49.062;10.338;2023-07-30T00:18:10;4.35;;;2.72;;
76995;SDS011;65929;49.062;10.338;2023-07-30T00:19:11;7.43;;;2.85;;
76995;SDS011;65929;49.062;10.338;2023-07-30T00:20:12;6.75;;;3.00;;
76995;SDS011;65929;49.062;10.338;2023-07-30T00:21:13;5.68;;;3.15;;
76995;SDS011;65929;49.062;10.338;2023-07-30T00:22:14;4.45;;;2.65;;
76995;SDS011;65929;49.062;10.338;2023-07-30T00:23:14;6.50;;;2.90;;
76995;SDS011;65929;49.062;10.338;2023-07-30T00:24:15;4.70;;;3.03;;
76995;SDS011;65929;49.062;10.338;2023-07-30T00:25:16;5.15;;;2.53;;
76995;SDS011;65929;49.062;10.338;2023-07-30T00:26:17;3.53;;;2.42;;
76995;SDS011;65929;49.062;10.338;2023-07-30T00:27:18;4.10;;;2.42;;
76995;SDS011;65929;49.062;10.338;2023-07-30T00:28:19;4.35;;;3.08;;
76995;SDS011;65929;49.062;10.338;2023-07-30T00:29:20;4.95;;;3.13;;
76995;SDS011;65929;49.062;10.338;2023-07-30T00:30:21;3.90;;;2.08;;
76995;SDS011;65929;49.062;10.338;2023-07-30T00:31:23;3.28;;;2.10;;
76995;SDS011;65929;49.062;10.338;2023-07-30T00:32:24;3.58;;;2.05;;
76995;SDS011;65929;49.062;10.338;2023-07-30T00:33:25;3.75;;;2.15;;
76995;SDS011;65929;49.062;10.338;2023-07-30T00:34:25;4.03;;;2.22;;
76995;SDS011;65929;49.062;10.338;2023-07-30T00:35:26;3.08;;;1.60;;
76995;SDS011;65929;49.062;10.338;2023-07-30T00:36:27;3.10;;;2.00;;
76995;SDS011;65929;49.062;10.338;2023-07-30T00:37:28;3.60;;;1.80;;
76995;SDS011;65929;49.062;10.338;2023-07-30T00:38:29;3.90;;;1.60;;
76995;SDS011;65929;49.062;10.338;2023-07-30T00:39:30;2.38;;;1.75;;
76995;SDS011;65929;49.062;10.338;2023-07-30T00:40:31;6.45;;;2.00;;
76995;SDS011;65929;49.062;10.338;2023-07-30T00:41:31;4.25;;;1.70;;
76995;SDS011;65929;49.062;10.338;2023-07-30T00:42:32;2.20;;;1.40;;
76995;SDS011;65929;49.062;10.338;2023-07-30T00:43:33;3.60;;;1.85;;
76995;SDS011;65929;49.062;10.338;2023-07-30T00:44:34;4.72;;;2.03;;
76995;SDS011;65929;49.062;10.338;2023-07-30T00:45:35;3.65;;;2.03;;
76995;SDS011;65929;49.062;10.338;2023-07-30T00:46:37;2.50;;;1.77;;
76995;SDS011;65929;49.062;10.338;2023-07-30T00:47:38;2.80;;;1.70;;
76995;SDS011;65929;49.062;10.338;2023-07-30T00:48:40;3.35;;;1.45;;
76995;SDS011;65929;49.062;10.338;2023-07-30T00:49:42;3.00;;;1.27;;
76995;SDS011;65929;49.062;10.338;2023-07-30T00:50:42;2.92;;;1.50;;
76995;SDS011;65929;49.062;10.338;2023-07-30T00:51:43;3.03;;;1.70;;
76995;SDS011;65929;49.062;10.338;2023-07-30T00:52:44;3.45;;;1.60;;
76995;SDS011;65929;49.062;10.338;2023-07-30T00:53:45;3.22;;;1.52;;
76995;SDS011;65929;49.062;10.338;2023-07-30T00:54:46;2.67;;;1.67;;
76995;SDS011;65929;49.062;10.338;2023-07-30T00:55:48;3.22;;;1.50;;
76995;SDS011;65929;49.062;10.338;2023-07-30T00:56:49;2.28;;;1.30;;
76995;SDS011;65929;49.062;10.338;2023-07-30T00:57:52;2.13;;;1.38;;
76995;SDS011;65929;49.062;10.338;2023-07-30T00:58:53;3.15;;;1.35;;
76995;SDS011;65929;49.062;10.338;2023-07-30T00:59:55;2.17;;;1.13;;
76995;SDS011;65929;49.062;10.338;2023-07-30T01:00:57;2.67;;;1.02;;
76995;SDS011;65929;49.062;10.338;2023-07-30T01:01:59;2.83;;;0.90;;
76995;SDS011;65929;49.062;10.338;2023-07-30T01:03:02;2.30;;;1.10;;
76995;SDS011;65929;49.062;10.338;2023-07-30T01:04:03;1.98;;;1.00;;
76995;SDS011;65929;49.062;10.338;2023-07-30T01:05:04;1.30;;;1.00;;
76995;SDS011;65929;49.062;10.338;2023-07-30T01:06:06;2.20;;;1.00;;
76995;SDS011;65929;49.062;10.338;2023-07-30T01:07:07;2.00;;;1.10;;
76995;SDS011;65929;49.062;10.338;2023-07-30T01:08:08;2.17;;;1.33;;
76995;SDS011;65929;49.062;10.338;2023-07-30T01:09:09;2.20;;;1.25;;
76995;SDS011;65929;49.062;10.338;2023-07-30T01:10:10;2.00;;;1.10;;
76995;SDS011;65929;49.062;10.338;2023-07-30T01:11:11;1.33;;;1.20;;
76995;SDS011;65929;49.062;10.338;2023-07-30T01:12:12;2.40;;;1.20;;
76995;SDS011;65929;49.062;10.338;2023-07-30T01:13:14;2.13;;;1.00;;
76995;SDS011;65929;49.062;10.338;2023-07-30T01:14:16;1.63;;;0.98;;
76995;SDS011;65929;49.062;10.338;2023-07-30T01:15:20;2.65;;;1.13;;
76995;SDS011;65929;49.062;10.338;2023-07-30T01:16:21;1.88;;;0.90;;
76995;SDS011;65929;49.062;10.338;2023-07-30T01:17:24;2.88;;;1.30;;
76995;SDS011;65929;49.062;10.338;2023-07-30T01:18:25;2.08;;;1.23;;
76995;SDS011;65929;49.062;10.338;2023-07-30T01:19:26;1.75;;;1.02;;
76995;SDS011;65929;49.062;10.338;2023-07-30T01:20:29;2.65;;;0.98;;
76995;SDS011;65929;49.062;10.338;2023-07-30T01:21:32;2.08;;;1.00;;
76995;SDS011;65929;49.062;10.338;2023-07-30T01:22:37;2.05;;;1.10;;
76995;SDS011;65929;49.062;10.338;2023-07-30T01:23:38;1.25;;;0.88;;
76995;SDS011;65929;49.062;10.338;2023-07-30T01:24:39;1.35;;;0.82;;
76995;SDS011;65929;49.062;10.338;2023-07-30T01:25:40;1.48;;;1.00;;
76995;SDS011;65929;49.062;10.338;2023-07-30T01:26:43;1.67;;;0.93;;
76995;SDS011;65929;49.062;10.338;2023-07-30T01:27:48;3.40;;;1.30;;
76995;SDS011;65929;49.062;10.338;2023-07-30T01:28:55;4.65;;;0.95;;
76995;SDS011;65929;49.062;10.338;2023-07-30T01:29:59;3.75;;;1.00;;
76995;SDS011;65929;49.062;10.338;2023-07-30T01:31:05;1.75;;;1.02;;
76995;SDS011;65929;49.062;10.338;2023-07-30T01:32:09;1.50;;;1.00;;
76995;SDS011;65929;49.062;10.338;2023-07-30T01:33:11;2.00;;;1.10;;
76995;SDS011;65929;49.062;10.338;2023-07-30T01:34:12;3.72;;;1.15;;
76995;SDS011;65929;49.062;10.338;2023-07-30T01:35:14;2.00;;;1.23;;
76995;SDS011;65929;49.062;10.338;2023-07-30T01:36:16;2.35;;;1.17;;
76995;SDS011;65929;49.062;10.338;2023-07-30T01:37:19;1.63;;;0.98;;
76995;SDS011;65929;49.062;10.338;2023-07-30T01:38:20;3.83;;;1.40;;
76995;SDS011;65929;49.062;10.338;2023-07-30T01:39:22;1.35;;;1.00;;
76995;SDS011;65929;49.062;10.338;2023-07-30T01:40:23;2.13;;;1.55;;
76995;SDS011;65929;49.062;10.338;2023-07-30T01:41:24;3.15;;;1.15;;
76995;SDS011;65929;49.062;10.338;2023-07-30T01:42:27;1.20;;;0.90;;
76995;SDS011;65929;49.062;10.338;2023-07-30T01:43:29;1.27;;;0.85;;
76995;SDS011;65929;49.062;10.338;2023-07-30T01:44:30;2.75;;;1.40;;
76995;SDS011;65929;49.062;10.338;2023-07-30T01:45:31;2.08;;;1.00;;
76995;SDS011;65929;49.062;10.338;2023-07-30T01:46:32;2.22;;;1.25;;
76995;SDS011;65929;49.062;10.338;2023-07-30T01:47:33;1.75;;;1.00;;
76995;SDS011;65929;49.062;10.338;2023-07-30T01:48:33;2.13;;;1.23;;
76995;SDS011;65929;49.062;10.338;2023-07-30T01:49:34;1.60;;;1.00;;
76995;SDS011;65929;49.062;10.338;2023-07-30T01:50:35;2.08;;;1.40;;
76995;SDS011;65929;49.062;10.338;2023-07-30T01:51:36;2.00;;;1.00;;
76995;SDS011;65929;49.062;10.338;2023-07-30T01:52:38;1.77;;;1.30;;
76995;SDS011;65929;49.062;10.338;2023-07-30T01:53:39;3.53;;;1.20;;
76995;SDS011;65929;49.062;10.338;2023-07-30T01:54:40;2.92;;;1.10;;
76995;SDS011;65929;49.062;10.338;2023-07-30T01:55:42;1.55;;;0.93;;
76995;SDS011;65929;49.062;10.338;2023-07-30T01:56:43;1.92;;;1.15;;
76995;SDS011;65929;49.062;10.338;2023-07-30T01:57:44;3.45;;;1.30;;
76995;SDS011;65929;49.062;10.338;2023-07-30T01:58:45;1.42;;;1.13;;
76995;SDS011;65929;49.062;10.338;2023-07-30T01:59:46;2.03;;;1.10;;
76995;SDS011;65929;49.062;10.338;2023-07-30T02:00:47;3.17;;;1.10;;
76995;SDS011;65929;49.062;10.338;2023-07-30T02:01:48;1.50;;;1.08;;
76995;SDS011;65929;49.062;10.338;2023-07-30T02:02:48;1.80;;;1.02;;
76995;SDS011;65929;49.062;10.338;2023-07-30T02:03:49;2.92;;;1.27;;
76995;SDS011;65929;49.062;10.338;2023-07-30T02:04:50;1.42;;;1.05;;
76995;SDS011;65929;49.062;10.338;2023-07-30T02:05:51;1.00;;;0.82;;
76995;SDS011;65929;49.062;10.338;2023-07-30T02:06:52;1.58;;;1.10;;
76995;SDS011;65929;49.062;10.338;2023-07-30T02:07:54;1.50;;;0.90;;
76995;SDS011;65929;49.062;10.338;2023-07-30T02:08:55;1.35;;;0.95;;
76995;SDS011;65929;49.062;10.338;2023-07-30T02:09:56;1.25;;;1.08;;
76995;SDS011;65929;49.062;10.338;2023-07-30T02:10:57;1.48;;;1.05;;
76995;SDS011;65929;49.062;10.338;2023-07-30T02:11:58;2.00;;;1.27;;
76995;SDS011;65929;49.062;10.338;2023-07-30T02:12:59;2.58;;;1.17;;
76995;SDS011;65929;49.062;10.338;2023-07-30T02:14:00;1.95;;;1.27;;
76995;SDS011;65929;49.062;10.338;2023-07-30T02:15:01;1.48;;;1.00;;
76995;SDS011;65929;49.062;10.338;2023-07-30T02:16:02;1.75;;;1.45;;
76995;SDS011;65929;49.062;10.338;2023-07-30T02:17:03;2.00;;;1.30;;
76995;SDS011;65929;49.062;10.338;2023-07-30T02:18:05;1.35;;;1.00;;
76995;SDS011;65929;49.062;10.338;2023-07-30T02:19:07;1.80;;;1.30;;
76995;SDS011;65929;49.062;10.338;2023-07-30T02:20:08;1.95;;;1.20;;
76995;SDS011;65929;49.062;10.338;2023-07-30T02:21:09;1.95;;;1.10;;
76995;SDS011;65929;49.062;10.338;2023-07-30T02:22:10;1.65;;;1.20;;
76995;SDS011;65929;49.062;10.338;2023-07-30T02:23:13;1.55;;;1.13;;
76995;SDS011;65929;49.062;10.338;2023-07-30T02:24:15;1.70;;;1.10;;
76995;SDS011;65929;49.062;10.338;2023-07-30T02:25:16;2.15;;;1.50;;
76995;SDS011;65929;49.062;10.338;2023-07-30T02:26:18;1.75;;;1.05;;
76995;SDS011;65929;49.062;10.338;2023-07-30T02:27:19;1.77;;;1.30;;
76995;SDS011;65929;49.062;10.338;2023-07-30T02:28:19;3.60;;;1.33;;
76995;SDS011;65929;49.062;10.338;2023-07-30T02:29:20;1.55;;;1.00;;
76995;SDS011;65929;49.062;10.338;2023-07-30T02:30:21;2.17;;;1.27;;
76995;SDS011;65929;49.062;10.338;2023-07-30T02:31:22;2.78;;;1.10;;
76995;SDS011;65929;49.062;10.338;2023-07-30T02:32:23;1.40;;;1.20;;
76995;SDS011;65929;49.062;10.338;2023-07-30T02:33:24;3.05;;;1.10;;
76995;SDS011;65929;49.062;10.338;2023-07-30T02:34:25;2.90;;;1.08;;
76995;SDS011;65929;49.062;10.338;2023-07-30T02:35:25;3.08;;;1.17;;
76995;SDS011;65929;49.062;10.338;2023-07-30T02:36:26;2.83;;;0.90;;
76995;SDS011;65929;49.062;10.338;2023-07-30T02:37:27;1.73;;;1.10;;
76995;SDS011;65929;49.062;10.338;2023-07-30T02:38:29;2.33;;;1.20;;
76995;SDS011;65929;49.062;10.338;2023-07-30T02:39:30;1.52;;;1.02;;
76995;SDS011;65929;49.062;10.338;2023-07-30T02:40:31;1.63;;;1.20;;
76995;SDS011;65929;49.062;10.338;2023-07-30T02:41:32;2.70;;;1.50;;
76995;SDS011;65929;49.062;10.338;2023-07-30T02:42:33;1.48;;;1.00;;
76995;SDS011;65929;49.062;10.338;2023-07-30T02:43:34;1.52;;;1.42;;
76995;SDS011;65929;49.062;10.338;2023-07-30T02:44:34;2.55;;;1.67;;
76995;SDS011;65929;49.062;10.338;2023-07-30T02:45:35;1.83;;;1.15;;
76995;SDS011;65929;49.062;10.338;2023-07-30T02:46:37;2.20;;;1.30;;
76995;SDS011;65929;49.062;10.338;2023-07-30T02:47:38;1.85;;;0.90;;
76995;SDS011;65929;49.062;10.338;2023-07-30T02:48:39;2.10;;;0.93;;
76995;SDS011;65929;49.062;10.338;2023-07-30T02:49:40;1.30;;;1.20;;
76995;SDS011;65929;49.062;10.338;2023-07-30T02:50:41;1.20;;;0.80;;
76995;SDS011;65929;49.062;10.338;2023-07-30T02:51:42;2.05;;;1.30;;
76995;SDS011;65929;49.062;10.338;2023-07-30T02:52:48;1.98;;;1.33;;
76995;SDS011;65929;49.062;10.338;2023-07-30T02:53:52;2.05;;;1.42;;
76995;SDS011;65929;49.062;10.338;2023-07-30T02:54:57;2.22;;;1.20;;
76995;SDS011;65929;49.062;10.338;2023-07-30T02:55:58;2.50;;;1.40;;
76995;SDS011;65929;49.062;10.338;2023-07-30T02:56:59;2.35;;;1.05;;
76995;SDS011;65929;49.062;10.338;2023-07-30T02:58:00;1.65;;;1.05;;
76995;SDS011;65929;49.062;10.338;2023-07-30T02:59:01;1.90;;;1.30;;
76995;SDS011;65929;49.062;10.338;2023-07-30T03:00:02;3.10;;;1.08;;
76995;SDS011;65929;49.062;10.338;2023-07-30T03:01:07;2.88;;;1.70;;
76995;SDS011;65929;49.062;10.338;2023-07-30T03:02:08;2.95;;;1.55;;
76995;SDS011;65929;49.062;10.338;2023-07-30T03:03:09;2.33;;;1.23;;
76995;SDS011;65929;49.062;10.338;2023-07-30T03:04:10;1.88;;;1.15;;
76995;SDS011;65929;49.062;10.338;2023-07-30T03:05:11;2.33;;;1.25;;
76995;SDS011;65929;49.062;10.338;2023-07-30T03:06:12;2.78;;;1.15;;
76995;SDS011;65929;49.062;10.338;2023-07-30T03:07:14;2.72;;;1.50;;
76995;SDS011;65929;49.062;10.338;2023-07-30T03:08:15;2.30;;;1.02;;
76995;SDS011;65929;49.062;10.338;2023-07-30T03:09:17;1.63;;;1.05;;
76995;SDS011;65929;49.062;10.338;2023-07-30T03:10:18;3.17;;;1.20;;
76995;SDS011;65929;49.062;10.338;2023-07-30T03:11:19;2.40;;;1.30;;
76995;SDS011;65929;49.062;10.338;2023-07-30T03:12:19;2.28;;;1.00;;
76995;SDS011;65929;49.062;10.338;2023-07-30T03:13:20;2.58;;;1.48;;
76995;SDS011;65929;49.062;10.338;2023-07-30T03:14:21;2.67;;;1.02;;
76995;SDS011;65929;49.062;10.338;2023-07-30T03:15:22;1.65;;;0.90;;
76995;SDS011;65929;49.062;10.338;2023-07-30T03:16:23;3.35;;;1.00;;
76995;SDS011;65929;49.062;10.338;2023-07-30T03:17:25;1.80;;;0.90;;
76995;SDS011;65929;49.062;10.338;2023-07-30T03:18:26;1.48;;;1.15;;
76995;SDS011;65929;49.062;10.338;2023-07-30T03:19:26;2.65;;;1.00;;
76995;SDS011;65929;49.062;10.338;2023-07-30T03:20:27;2.67;;;1.10;;
76995;SDS011;65929;49.062;10.338;2023-07-30T03:21:28;1.65;;;1.02;;
76995;SDS011;65929;49.062;10.338;2023-07-30T03:22:29;1.48;;;1.10;;
76995;SDS011;65929;49.062;10.338;2023-07-30T03:23:30;3.25;;;1.67;;
76995;SDS011;65929;49.062;10.338;2023-07-30T03:24:33;1.88;;;1.05;;
76995;SDS011;65929;49.062;10.338;2023-07-30T03:25:34;1.55;;;1.02;;
76995;SDS011;65929;49.062;10.338;2023-07-30T03:26:34;3.25;;;1.10;;
76995;SDS011;65929;49.062;10.338;2023-07-30T03:27:35;1.88;;;0.93;;
76995;SDS011;65929;49.062;10.338;2023-07-30T03:28:36;1.58;;;1.08;;
76995;SDS011;65929;49.062;10.338;2023-07-30T03:29:37;1.58;;;1.00;;
76995;SDS011;65929;49.062;10.338;2023-07-30T03:30:38;1.67;;;1.23;;
76995;SDS011;65929;49.062;10.338;2023-07-30T03:31:39;2.35;;;1.02;;
76995;SDS011;65929;49.062;10.338;2023-07-30T03:32:39;2.78;;;1.25;;
76995;SDS011;65929;49.062;10.338;2023-07-30T03:33:40;1.52;;;1.27;;
76995;SDS011;65929;49.062;10.338;2023-07-30T03:35:46;2.45;;;0.88;;
76995;SDS011;65929;49.062;10.338;2023-07-30T03:36:47;2.55;;;1.02;;
76995;SDS011;65929;49.062;10.338;2023-07-30T03:37:48;1.80;;;1.15;;
76995;SDS011;65929;49.062;10.338;2023-07-30T03:38:49;1.83;;;1.30;;
76995;SDS011;65929;49.062;10.338;2023-07-30T03:39:51;1.85;;;1.00;;
76995;SDS011;65929;49.062;10.338;2023-07-30T03:40:52;1.00;;;0.82;;
76995;SDS011;65929;49.062;10.338;2023-07-30T03:41:53;1.17;;;1.00;;
76995;SDS011;65929;49.062;10.338;2023-07-30T03:42:54;1.33;;;0.90;;
76995;SDS011;65929;49.062;10.338;2023-07-30T03:43:55;0.98;;;0.70;;
76995;SDS011;65929;49.062;10.338;2023-07-30T03:44:55;2.05;;;0.93;;
76995;SDS011;65929;49.062;10.338;2023-07-30T03:45:56;1.17;;;0.90;;
76995;SDS011;65929;49.062;10.338;2023-07-30T03:46:57;1.77;;;0.93;;
76995;SDS011;65929;49.062;10.338;2023-07-30T03:47:58;1.63;;;0.90;;
76995;SDS011;65929;49.062;10.338;2023-07-30T03:48:59;2.85;;;1.00;;
76995;SDS011;65929;49.062;10.338;2023-07-30T03:50:01;1.85;;;0.95;;
76995;SDS011;65929;49.062;10.338;2023-07-30T03:51:02;1.80;;;0.85;;
76995;SDS011;65929;49.062;10.338;2023-07-30T03:52:03;1.85;;;1.30;;
76995;SDS011;65929;49.062;10.338;2023-07-30T03:53:04;1.73;;;0.88;;
76995;SDS011;65929;49.062;10.338;2023-07-30T03:54:05;1.38;;;0.95;;
76995;SDS011;65929;49.062;10.338;2023-07-30T03:55:07;1.65;;;1.15;;
76995;SDS011;65929;49.062;10.338;2023-07-30T03:56:09;1.65;;;1.10;;
76995;SDS011;65929;49.062;10.338;2023-07-30T03:57:10;2.45;;;1.60;;
76995;SDS011;65929;49.062;10.338;2023-07-30T03:58:11;1.85;;;0.70;;
76995;SDS011;65929;49.062;10.338;2023-07-30T03:59:12;1.55;;;0.90;;
76995;SDS011;65929;49.062;10.338;2023-07-30T04:00:12;1.80;;;0.80;;
76995;SDS011;65929;49.062;10.338;2023-07-30T04:01:13;2.15;;;1.02;;
76995;SDS011;65929;49.062;10.338;2023-07-30T04:02:14;1.33;;;0.98;;
76995;SDS011;65929;49.062;10.338;2023-07-30T04:03:15;1.58;;;0.90;;
76995;SDS011;65929;49.062;10.338;2023-07-30T04:04:16;1.63;;;1.10;;
76995;SDS011;65929;49.062;10.338;2023-07-30T04:05:17;1.50;;;1.00;;
76995;SDS011;65929;49.062;10.338;2023-07-30T04:06:18;3.72;;;1.08;;
76995;SDS011;65929;49.062;10.338;2023-07-30T04:07:19;2.45;;;1.25;;
76995;SDS011;65929;49.062;10.338;2023-07-30T04:08:20;2.05;;;1.20;;
76995;SDS011;65929;49.062;10.338;2023-07-30T04:09:21;1.60;;;1.00;;
76995;SDS011;65929;49.062;10.338;2023-07-30T04:10:23;1.13;;;0.90;;
76995;SDS011;65929;49.062;10.338;2023-07-30T04:11:24;1.95;;;0.70;;
76995;SDS011;65929;49.062;10.338;2023-07-30T04:12:25;3.10;;;1.30;;
76995;SDS011;65929;49.062;10.338;2023-07-30T04:13:26;2.25;;;1.08;;
76995;SDS011;65929;49.062;10.338;2023-07-30T04:14:27;2.15;;;1.13;;
76995;SDS011;65929;49.062;10.338;2023-07-30T04:15:28;2.35;;;1.15;;
76995;SDS011;65929;49.062;10.338;2023-07-30T04:16:28;2.28;;;1.17;;
76995;SDS011;65929;49.062;10.338;2023-07-30T04:17:29;2.40;;;1.20;;
76995;SDS011;65929;49.062;10.338;2023-07-30T04:18:30;1.52;;;1.08;;
76995;SDS011;65929;49.062;10.338;2023-07-30T04:19:31;1.58;;;1.27;;
76995;SDS011;65929;49.062;10.338;2023-07-30T04:20:32;1.38;;;0.95;;
76995;SDS011;65929;49.062;10.338;2023-07-30T04:21:33;1.58;;;1.00;;
76995;SDS011;65929;49.062;10.338;2023-07-30T04:22:34;1.90;;;1.10;;
76995;SDS011;65929;49.062;10.338;2023-07-30T04:23:34;1.45;;;1.13;;
76995;SDS011;65929;49.062;10.338;2023-07-30T04:24:35;2.70;;;1.17;;
76995;SDS011;65929;49.062;10.338;2023-07-30T04:25:38;1.38;;;1.10;;
76995;SDS011;65929;49.062;10.338;2023-07-30T04:26:39;2.55;;;1.48;;
76995;SDS011;65929;49.062;10.338;2023-07-30T04:27:40;2.38;;;1.17;;
76995;SDS011;65929;49.062;10.338;2023-07-30T04:28:40;2.70;;;1.20;;
76995;SDS011;65929;49.062;10.338;2023-07-30T04:29:41;1.92;;;1.10;;
76995;SDS011;65929;49.062;10.338;2023-07-30T04:30:42;1.80;;;1.10;;
76995;SDS011;65929;49.062;10.338;2023-07-30T04:31:43;1.27;;;1.05;;
76995;SDS011;65929;49.062;10.338;2023-07-30T04:32:44;1.92;;;1.40;;
76995;SDS011;65929;49.062;10.338;2023-07-30T04:33:45;2.53;;;1.33;;
76995;SDS011;65929;49.062;10.338;2023-07-30T04:34:46;1.27;;;1.05;;
76995;SDS011;65929;49.062;10.338;2023-07-30T04:35:47;2.38;;;1.23;;
76995;SDS011;65929;49.062;10.338;2023-07-30T04:36:48;2.17;;;1.27;;
76995;SDS011;65929;49.062;10.338;2023-07-30T04:37:49;2.20;;;1.10;;
76995;SDS011;65929;49.062;10.338;2023-07-30T04:38:50;1.77;;;1.10;;
76995;SDS011;65929;49.062;10.338;2023-07-30T04:39:50;1.60;;;1.05;;
76995;SDS011;65929;49.062;10.338;2023-07-30T04:40:53;1.42;;;1.10;;
76995;SDS011;65929;49.062;10.338;2023-07-30T04:41:53;1.92;;;1.35;;
76995;SDS011;65929;49.062;10.338;2023-07-30T04:42:54;1.98;;;1.35;;
76995;SDS011;65929;49.062;10.338;2023-07-30T04:43:55;1.60;;;1.40;;
76995;SDS011;65929;49.062;10.338;2023-07-30T04:44:56;1.92;;;1.50;;
76995;SDS011;65929;49.062;10.338;2023-07-30T04:45:57;1.60;;;1.42;;
76995;SDS011;65929;49.062;10.338;2023-07-30T04:46:58;1.77;;;1.30;;
76995;SDS011;65929;49.062;10.338;2023-07-30T04:47:59;2.03;;;1.50;;
76995;SDS011;65929;49.062;10.338;2023-07-30T04:49:01;2.05;;;1.38;;
76995;SDS011;65929;49.062;10.338;2023-07-30T04:50:02;2.10;;;1.50;;
76995;SDS011;65929;49.062;10.338;2023-07-30T04:51:03;2.00;;;1.50;;
76995;SDS011;65929;49.062;10.338;2023-07-30T04:52:05;1.90;;;1.40;;
76995;SDS011;65929;49.062;10.338;2023-07-30T04:53:06;2.95;;;1.20;;
76995;SDS011;65929;49.062;10.338;2023-07-30T04:54:07;5.20;;;1.95;;
76995;SDS011;65929;49.062;10.338;2023-07-30T04:55:08;1.80;;;1.33;;
76995;SDS011;65929;49.062;10.338;2023-07-30T04:56:10;2.30;;;1.63;;
76995;SDS011;65929;49.062;10.338;2023-07-30T04:57:11;3.53;;;1.50;;
76995;SDS011;65929;49.062;10.338;2023-07-30T04:58:12;2.70;;;1.52;;
76995;SDS011;65929;49.062;10.338;2023-07-30T04:59:12;2.65;;;1.35;;
76995;SDS011;65929;49.062;10.338;2023-07-30T05:00:13;1.75;;;1.33;;
76995;SDS011;65929;49.062;10.338;2023-07-30T05:01:14;2.15;;;1.80;;
76995;SDS011;65929;49.062;10.338;2023-07-30T05:02:15;3.75;;;1.58;;
76995;SDS011;65929;49.062;10.338;2023-07-30T05:03:16;1.88;;;1.50;;
76995;SDS011;65929;49.062;10.338;2023-07-30T05:04:17;2.20;;;1.60;;
76995;SDS011;65929;49.062;10.338;2023-07-30T05:05:17;2.92;;;1.83;;
76995;SDS011;65929;49.062;10.338;2023-07-30T05:06:18;2.28;;;1.70;;
76995;SDS011;65929;49.062;10.338;2023-07-30T05:07:19;3.00;;;1.60;;
76995;SDS011;65929;49.062;10.338;2023-07-30T05:08:20;3.05;;;1.80;;
76995;SDS011;65929;49.062;10.338;2023-07-30T05:09:21;2.13;;;1.58;;
76995;SDS011;65929;49.062;10.338;2023-07-30T05:10:22;2.53;;;1.65;;
76995;SDS011;65929;49.062;10.338;2023-07-30T05:11:24;3.00;;;1.65;;
76995;SDS011;65929;49.062;10.338;2023-07-30T05:12:25;2.78;;;2.00;;
76995;SDS011;65929;49.062;10.338;2023-07-30T05:13:26;3.30;;;1.65;;
76995;SDS011;65929;49.062;10.338;2023-07-30T05:14:27;2.65;;;1.90;;
76995;SDS011;65929;49.062;10.338;2023-07-30T05:15:27;1.92;;;1.60;;
76995;SDS011;65929;49.062;10.338;2023-07-30T05:16:28;3.22;;;2.30;;
76995;SDS011;65929;49.062;10.338;2023-07-30T05:17:29;2.47;;;1.73;;
76995;SDS011;65929;49.062;10.338;2023-07-30T05:19:44;3.08;;;1.90;;
76995;SDS011;65929;49.062;10.338;2023-07-30T05:20:45;2.55;;;1.98;;
76995;SDS011;65929;49.062;10.338;2023-07-30T05:21:46;6.05;;;2.50;;
76995;SDS011;65929;49.062;10.338;2023-07-30T05:22:47;2.83;;;2.17;;
76995;SDS011;65929;49.062;10.338;2023-07-30T05:23:48;2.58;;;1.90;;
76995;SDS011;65929;49.062;10.338;2023-07-30T05:24:49;3.97;;;2.00;;
76995;SDS011;65929;49.062;10.338;2023-07-30T05:25:50;3.42;;;2.15;;
76995;SDS011;65929;49.062;10.338;2023-07-30T05:26:52;2.42;;;1.83;;
76995;SDS011;65929;49.062;10.338;2023-07-30T05:27:53;7.10;;;2.22;;
76995;SDS011;65929;49.062;10.338;2023-07-30T05:28:54;3.40;;;2.25;;
76995;SDS011;65929;49.062;10.338;2023-07-30T05:30:10;3.33;;;1.80;;
76995;SDS011;65929;49.062;10.338;2023-07-30T05:35:53;2.67;;;1.70;;
76995;SDS011;65929;49.062;10.338;2023-07-30T05:36:54;2.67;;;2.15;;
76995;SDS011;65929;49.062;10.338;2023-07-30T05:37:55;3.35;;;2.05;;
76995;SDS011;65929;49.062;10.338;2023-07-30T05:38:56;2.97;;;2.10;;
76995;SDS011;65929;49.062;10.338;2023-07-30T05:39:57;2.92;;;2.35;;
76995;SDS011;65929;49.062;10.338;2023-07-30T05:40:58;2.53;;;1.88;;
76995;SDS011;65929;49.062;10.338;2023-07-30T05:42:00;4.78;;;2.50;;
76995;SDS011;65929;49.062;10.338;2023-07-30T05:43:01;4.05;;;1.83;;
76995;SDS011;65929;49.062;10.338;2023-07-30T05:44:02;2.75;;;2.10;;
76995;SDS011;65929;49.062;10.338;2023-07-30T05:45:04;3.67;;;2.17;;
76995;SDS011;65929;49.062;10.338;2023-07-30T05:46:05;3.05;;;2.17;;
76995;SDS011;65929;49.062;10.338;2023-07-30T05:47:07;4.32;;;2.28;;
76995;SDS011;65929;49.062;10.338;2023-07-30T05:48:08;4.65;;;2.38;;
76995;SDS011;65929;49.062;10.338;2023-07-30T05:49:09;2.75;;;2.10;;
76995;SDS011;65929;49.062;10.338;2023-07-30T05:50:10;3.58;;;2.40;;
76995;SDS011;65929;49.062;10.338;2023-07-30T05:51:11;3.10;;;2.22;;
76995;SDS011;65929;49.062;10.338;2023-07-30T05:52:12;3.72;;;2.55;;
76995;SDS011;65929;49.062;10.338;2023-07-30T05:53:14;2.95;;;2.20;;
76995;SDS011;65929;49.062;10.338;2023-07-30T05:54:16;3.20;;;2.20;;
76995;SDS011;65929;49.062;10.338;2023-07-30T05:55:18;2.78;;;2.35;;
76995;SDS011;65929;49.062;10.338;2023-07-30T05:56:18;4.28;;;2.38;;
76995;SDS011;65929;49.062;10.338;2023-07-30T05:57:21;3.08;;;2.20;;
76995;SDS011;65929;49.062;10.338;2023-07-30T05:58:22;2.63;;;2.20;;
76995;SDS011;65929;49.062;10.338;2023-07-30T05:59:23;2.35;;;2.10;;
76995;SDS011;65929;49.062;10.338;2023-07-30T06:00:24;4.03;;;2.08;;
76995;SDS011;65929;49.062;10.338;2023-07-30T06:01:25;3.65;;;2.17;;
76995;SDS011;65929;49.062;10.338;2023-07-30T06:02:26;2.80;;;2.42;;
76995;SDS011;65929;49.062;10.338;2023-07-30T06:03:27;2.00;;;1.75;;
76995;SDS011;65929;49.062;10.338;2023-07-30T06:04:28;4.95;;;2.28;;
76995;SDS011;65929;49.062;10.338;2023-07-30T06:05:29;3.60;;;1.98;;
76995;SDS011;65929;49.062;10.338;2023-07-30T06:06:30;2.47;;;1.75;;
76995;SDS011;65929;49.062;10.338;2023-07-30T06:07:30;2.90;;;2.40;;
76995;SDS011;65929;49.062;10.338;2023-07-30T06:08:31;3.33;;;2.20;;
76995;SDS011;65929;49.062;10.338;2023-07-30T06:09:32;2.88;;;2.10;;
76995;SDS011;65929;49.062;10.338;2023-07-30T06:10:34;3.00;;;2.00;;